Terminal Aerodrome Forecast
Issued by NWS

Home | Current Version | Previous Version | Text Only | Print | Product List | Glossary On
Versions: 1 2 3 4 5 6 7 8 9 10 11 12 13 14 15 16 17 18 19 20
000
FTUS43 KFGF 242100 AAA
TAFDVL
TAF AMD
KDVL 242149Z 2422/2518 VRB04KT P6SM SCT035
     FM242300 29013KT P6SM VCTS BKN035CB
      TEMPO 2423/2501 VRB25KT 3SM -TSRA BKN025CB
     FM250200 30012KT P6SM SCT035
     FM251400 34007KT P6SM BKN015
      AMD LTD TO CLD VIS AND WIND=

USA.gov is the U.S. government's official web portal to all federal, state and local government web resources and services.